sensor_id;sensor_type;location;lat;lon;timestamp;P1;durP1;ratioP1;P2;durP2;ratioP2
18754;SDS011;35061;47.664;9.166;2023-03-07T00:01:07;9.68;;;6.78;;
18754;SDS011;35061;47.664;9.166;2023-03-07T00:03:35;9.80;;;6.57;;
18754;SDS011;35061;47.664;9.166;2023-03-07T00:06:04;10.40;;;6.65;;
18754;SDS011;35061;47.664;9.166;2023-03-07T00:08:34;11.02;;;7.05;;
18754;SDS011;35061;47.664;9.166;2023-03-07T00:11:03;11.15;;;7.30;;
18754;SDS011;35061;47.664;9.166;2023-03-07T00:13:35;9.15;;;6.20;;
18754;SDS011;35061;47.664;9.166;2023-03-07T00:16:05;10.93;;;7.12;;
18754;SDS011;35061;47.664;9.166;2023-03-07T00:18:35;11.12;;;7.22;;
18754;SDS011;35061;47.664;9.166;2023-03-07T00:21:04;12.40;;;6.93;;
18754;SDS011;35061;47.664;9.166;2023-03-07T00:23:34;14.75;;;7.90;;
18754;SDS011;35061;47.664;9.166;2023-03-07T00:26:04;11.45;;;8.05;;
18754;SDS011;35061;47.664;9.166;2023-03-07T00:28:38;12.70;;;7.78;;
18754;SDS011;35061;47.664;9.166;2023-03-07T00:31:07;8.77;;;6.90;;
18754;SDS011;35061;47.664;9.166;2023-03-07T00:33:37;10.45;;;7.10;;
18754;SDS011;35061;47.664;9.166;2023-03-07T00:36:15;8.85;;;6.35;;
18754;SDS011;35061;47.664;9.166;2023-03-07T00:38:45;10.98;;;7.20;;
18754;SDS011;35061;47.664;9.166;2023-03-07T00:41:18;12.48;;;7.18;;
18754;SDS011;35061;47.664;9.166;2023-03-07T00:43:47;10.93;;;6.87;;
18754;SDS011;35061;47.664;9.166;2023-03-07T00:46:16;11.68;;;6.78;;
18754;SDS011;35061;47.664;9.166;2023-03-07T00:48:45;10.77;;;7.10;;
18754;SDS011;35061;47.664;9.166;2023-03-07T00:51:14;12.82;;;6.82;;
18754;SDS011;35061;47.664;9.166;2023-03-07T00:53:43;9.80;;;6.10;;
18754;SDS011;35061;47.664;9.166;2023-03-07T00:56:13;10.23;;;6.80;;
18754;SDS011;35061;47.664;9.166;2023-03-07T00:58:44;8.50;;;6.53;;
18754;SDS011;35061;47.664;9.166;2023-03-07T01:01:13;10.65;;;6.82;;
18754;SDS011;35061;47.664;9.166;2023-03-07T01:03:44;11.65;;;6.97;;
18754;SDS011;35061;47.664;9.166;2023-03-07T01:06:12;9.93;;;6.85;;
18754;SDS011;35061;47.664;9.166;2023-03-07T01:08:42;11.12;;;7.50;;
18754;SDS011;35061;47.664;9.166;2023-03-07T01:11:10;10.55;;;6.87;;
18754;SDS011;35061;47.664;9.166;2023-03-07T01:13:39;8.55;;;6.60;;
18754;SDS011;35061;47.664;9.166;2023-03-07T01:16:08;10.75;;;7.22;;
18754;SDS011;35061;47.664;9.166;2023-03-07T01:18:51;9.73;;;6.68;;
18754;SDS011;35061;47.664;9.166;2023-03-07T01:21:22;8.77;;;6.10;;
18754;SDS011;35061;47.664;9.166;2023-03-07T01:23:54;10.60;;;7.43;;
18754;SDS011;35061;47.664;9.166;2023-03-07T01:26:23;10.07;;;6.32;;
18754;SDS011;35061;47.664;9.166;2023-03-07T01:28:53;9.85;;;6.65;;
18754;SDS011;35061;47.664;9.166;2023-03-07T01:31:22;10.88;;;7.22;;
18754;SDS011;35061;47.664;9.166;2023-03-07T01:33:52;10.13;;;6.90;;
18754;SDS011;35061;47.664;9.166;2023-03-07T01:36:24;10.82;;;6.45;;
18754;SDS011;35061;47.664;9.166;2023-03-07T01:39:01;11.27;;;6.47;;
18754;SDS011;35061;47.664;9.166;2023-03-07T01:41:33;11.68;;;7.22;;
18754;SDS011;35061;47.664;9.166;2023-03-07T01:44:02;10.75;;;7.03;;
18754;SDS011;35061;47.664;9.166;2023-03-07T01:46:46;9.98;;;6.93;;
18754;SDS011;35061;47.664;9.166;2023-03-07T01:49:29;12.02;;;7.57;;
18754;SDS011;35061;47.664;9.166;2023-03-07T01:54:40;10.40;;;6.28;;
18754;SDS011;35061;47.664;9.166;2023-03-07T01:57:18;10.35;;;6.65;;
18754;SDS011;35061;47.664;9.166;2023-03-07T01:59:50;11.20;;;7.12;;
18754;SDS011;35061;47.664;9.166;2023-03-07T02:02:20;13.00;;;7.37;;
18754;SDS011;35061;47.664;9.166;2023-03-07T02:07:45;9.93;;;6.85;;
18754;SDS011;35061;47.664;9.166;2023-03-07T02:10:16;13.48;;;8.38;;
18754;SDS011;35061;47.664;9.166;2023-03-07T02:12:46;10.82;;;7.12;;
18754;SDS011;35061;47.664;9.166;2023-03-07T02:15:15;10.80;;;6.68;;
18754;SDS011;35061;47.664;9.166;2023-03-07T02:17:43;10.38;;;6.65;;
18754;SDS011;35061;47.664;9.166;2023-03-07T02:20:35;11.85;;;6.57;;
18754;SDS011;35061;47.664;9.166;2023-03-07T02:23:02;11.27;;;6.50;;
18754;SDS011;35061;47.664;9.166;2023-03-07T02:25:35;9.50;;;6.57;;
18754;SDS011;35061;47.664;9.166;2023-03-07T02:28:10;9.90;;;6.72;;
18754;SDS011;35061;47.664;9.166;2023-03-07T02:30:52;10.07;;;6.90;;
18754;SDS011;35061;47.664;9.166;2023-03-07T02:33:27;10.05;;;6.60;;
18754;SDS011;35061;47.664;9.166;2023-03-07T02:35:56;11.95;;;6.93;;
18754;SDS011;35061;47.664;9.166;2023-03-07T02:38:28;9.95;;;7.00;;
18754;SDS011;35061;47.664;9.166;2023-03-07T02:40:59;11.35;;;6.78;;
18754;SDS011;35061;47.664;9.166;2023-03-07T02:43:27;11.45;;;6.93;;
18754;SDS011;35061;47.664;9.166;2023-03-07T02:45:55;11.40;;;6.35;;
18754;SDS011;35061;47.664;9.166;2023-03-07T02:48:23;8.38;;;6.05;;
18754;SDS011;35061;47.664;9.166;2023-03-07T02:50:50;10.63;;;7.05;;
18754;SDS011;35061;47.664;9.166;2023-03-07T02:53:18;10.60;;;6.93;;
18754;SDS011;35061;47.664;9.166;2023-03-07T02:55:46;10.30;;;6.95;;
18754;SDS011;35061;47.664;9.166;2023-03-07T02:58:14;10.10;;;6.60;;
18754;SDS011;35061;47.664;9.166;2023-03-07T03:00:41;9.35;;;6.62;;
18754;SDS011;35061;47.664;9.166;2023-03-07T03:03:09;12.27;;;6.82;;
18754;SDS011;35061;47.664;9.166;2023-03-07T03:05:38;8.73;;;6.65;;
18754;SDS011;35061;47.664;9.166;2023-03-07T03:08:06;8.85;;;6.35;;
18754;SDS011;35061;47.664;9.166;2023-03-07T03:10:33;10.63;;;6.28;;
18754;SDS011;35061;47.664;9.166;2023-03-07T03:13:01;9.60;;;6.35;;
18754;SDS011;35061;47.664;9.166;2023-03-07T03:15:29;10.73;;;6.70;;
18754;SDS011;35061;47.664;9.166;2023-03-07T03:17:56;8.93;;;5.53;;
18754;SDS011;35061;47.664;9.166;2023-03-07T03:20:24;9.45;;;6.68;;
18754;SDS011;35061;47.664;9.166;2023-03-07T03:22:54;10.77;;;6.37;;
18754;SDS011;35061;47.664;9.166;2023-03-07T03:25:21;10.25;;;6.10;;
18754;SDS011;35061;47.664;9.166;2023-03-07T03:27:51;12.68;;;7.00;;
18754;SDS011;35061;47.664;9.166;2023-03-07T03:30:19;13.38;;;6.70;;
18754;SDS011;35061;47.664;9.166;2023-03-07T03:32:46;9.82;;;6.82;;
18754;SDS011;35061;47.664;9.166;2023-03-07T03:35:14;11.50;;;7.05;;
18754;SDS011;35061;47.664;9.166;2023-03-07T03:37:42;9.95;;;6.28;;
18754;SDS011;35061;47.664;9.166;2023-03-07T03:40:10;9.35;;;6.93;;
18754;SDS011;35061;47.664;9.166;2023-03-07T03:42:40;9.35;;;6.60;;
18754;SDS011;35061;47.664;9.166;2023-03-07T03:45:09;10.45;;;6.68;;
18754;SDS011;35061;47.664;9.166;2023-03-07T03:47:37;9.07;;;6.53;;
18754;SDS011;35061;47.664;9.166;2023-03-07T03:50:05;10.85;;;6.72;;
18754;SDS011;35061;47.664;9.166;2023-03-07T03:52:34;10.25;;;6.90;;
18754;SDS011;35061;47.664;9.166;2023-03-07T03:55:03;12.10;;;7.20;;
18754;SDS011;35061;47.664;9.166;2023-03-07T03:57:31;10.07;;;6.50;;
18754;SDS011;35061;47.664;9.166;2023-03-07T03:59:58;11.12;;;6.93;;
18754;SDS011;35061;47.664;9.166;2023-03-07T04:02:26;10.68;;;7.00;;
18754;SDS011;35061;47.664;9.166;2023-03-07T04:04:56;9.88;;;7.05;;
18754;SDS011;35061;47.664;9.166;2023-03-07T04:07:24;9.50;;;7.10;;
18754;SDS011;35061;47.664;9.166;2023-03-07T04:09:55;10.75;;;6.37;;
18754;SDS011;35061;47.664;9.166;2023-03-07T04:12:23;10.13;;;7.03;;
18754;SDS011;35061;47.664;9.166;2023-03-07T04:14:50;9.60;;;6.10;;
18754;SDS011;35061;47.664;9.166;2023-03-07T04:17:18;10.57;;;6.85;;
18754;SDS011;35061;47.664;9.166;2023-03-07T04:19:46;10.02;;;6.62;;
18754;SDS011;35061;47.664;9.166;2023-03-07T04:22:13;10.55;;;6.37;;
18754;SDS011;35061;47.664;9.166;2023-03-07T04:24:41;11.43;;;6.93;;
18754;SDS011;35061;47.664;9.166;2023-03-07T04:27:08;9.88;;;6.50;;
18754;SDS011;35061;47.664;9.166;2023-03-07T04:29:36;8.73;;;5.95;;
18754;SDS011;35061;47.664;9.166;2023-03-07T04:32:04;13.20;;;7.05;;
18754;SDS011;35061;47.664;9.166;2023-03-07T04:34:32;8.27;;;5.62;;
18754;SDS011;35061;47.664;9.166;2023-03-07T04:37:00;11.07;;;6.40;;
18754;SDS011;35061;47.664;9.166;2023-03-07T04:39:27;7.25;;;5.32;;
18754;SDS011;35061;47.664;9.166;2023-03-07T04:41:55;9.10;;;5.95;;
18754;SDS011;35061;47.664;9.166;2023-03-07T04:44:23;9.30;;;6.68;;
18754;SDS011;35061;47.664;9.166;2023-03-07T04:46:50;9.65;;;6.10;;
18754;SDS011;35061;47.664;9.166;2023-03-07T04:49:18;11.93;;;6.28;;
18754;SDS011;35061;47.664;9.166;2023-03-07T04:51:46;10.25;;;6.70;;
18754;SDS011;35061;47.664;9.166;2023-03-07T04:54:14;8.85;;;6.22;;
18754;SDS011;35061;47.664;9.166;2023-03-07T04:56:41;10.30;;;6.65;;
18754;SDS011;35061;47.664;9.166;2023-03-07T04:59:09;10.25;;;6.12;;
18754;SDS011;35061;47.664;9.166;2023-03-07T05:01:37;11.40;;;7.40;;
18754;SDS011;35061;47.664;9.166;2023-03-07T05:04:05;10.77;;;6.47;;
18754;SDS011;35061;47.664;9.166;2023-03-07T05:06:33;9.15;;;6.00;;
18754;SDS011;35061;47.664;9.166;2023-03-07T05:09:01;8.23;;;6.18;;
18754;SDS011;35061;47.664;9.166;2023-03-07T05:11:28;10.38;;;6.50;;
18754;SDS011;35061;47.664;9.166;2023-03-07T05:13:56;11.10;;;6.80;;
18754;SDS011;35061;47.664;9.166;2023-03-07T05:16:24;8.77;;;5.75;;
18754;SDS011;35061;47.664;9.166;2023-03-07T05:18:52;9.82;;;6.65;;
18754;SDS011;35061;47.664;9.166;2023-03-07T05:21:20;8.65;;;5.85;;
18754;SDS011;35061;47.664;9.166;2023-03-07T05:23:47;8.30;;;5.45;;
18754;SDS011;35061;47.664;9.166;2023-03-07T05:26:16;10.23;;;6.10;;
18754;SDS011;35061;47.664;9.166;2023-03-07T05:28:43;8.98;;;6.00;;
18754;SDS011;35061;47.664;9.166;2023-03-07T05:31:11;10.05;;;6.62;;
18754;SDS011;35061;47.664;9.166;2023-03-07T05:33:39;11.15;;;6.00;;
18754;SDS011;35061;47.664;9.166;2023-03-07T05:36:08;8.77;;;5.93;;
18754;SDS011;35061;47.664;9.166;2023-03-07T05:38:36;9.73;;;6.78;;
18754;SDS011;35061;47.664;9.166;2023-03-07T05:41:04;7.62;;;5.70;;
18754;SDS011;35061;47.664;9.166;2023-03-07T05:43:32;9.05;;;6.00;;
18754;SDS011;35061;47.664;9.166;2023-03-07T05:45:59;9.43;;;5.80;;
18754;SDS011;35061;47.664;9.166;2023-03-07T05:48:27;10.18;;;6.50;;
18754;SDS011;35061;47.664;9.166;2023-03-07T05:50:58;8.70;;;6.43;;
18754;SDS011;35061;47.664;9.166;2023-03-07T05:53:27;10.35;;;6.28;;
18754;SDS011;35061;47.664;9.166;2023-03-07T05:55:55;8.73;;;5.50;;
18754;SDS011;35061;47.664;9.166;2023-03-07T05:58:22;9.02;;;6.12;;
18754;SDS011;35061;47.664;9.166;2023-03-07T06:00:50;9.38;;;5.65;;
18754;SDS011;35061;47.664;9.166;2023-03-07T06:03:17;8.52;;;5.95;;
18754;SDS011;35061;47.664;9.166;2023-03-07T06:05:49;8.13;;;5.85;;
18754;SDS011;35061;47.664;9.166;2023-03-07T06:08:17;8.63;;;5.72;;
18754;SDS011;35061;47.664;9.166;2023-03-07T06:10:48;8.90;;;5.55;;
18754;SDS011;35061;47.664;9.166;2023-03-07T06:13:20;9.93;;;6.80;;
18754;SDS011;35061;47.664;9.166;2023-03-07T06:15:52;8.02;;;5.55;;
18754;SDS011;35061;47.664;9.166;2023-03-07T06:18:21;12.73;;;6.85;;
18754;SDS011;35061;47.664;9.166;2023-03-07T06:20:55;10.82;;;6.93;;
18754;SDS011;35061;47.664;9.166;2023-03-07T06:23:23;11.68;;;6.00;;
18754;SDS011;35061;47.664;9.166;2023-03-07T06:25:52;10.85;;;6.70;;
18754;SDS011;35061;47.664;9.166;2023-03-07T06:28:20;10.52;;;6.57;;
18754;SDS011;35061;47.664;9.166;2023-03-07T06:30:48;9.02;;;5.93;;
18754;SDS011;35061;47.664;9.166;2023-03-07T06:33:16;8.57;;;6.28;;
18754;SDS011;35061;47.664;9.166;2023-03-07T06:35:44;9.60;;;6.07;;
18754;SDS011;35061;47.664;9.166;2023-03-07T06:38:13;9.15;;;5.55;;
18754;SDS011;35061;47.664;9.166;2023-03-07T06:40:42;10.00;;;5.75;;
18754;SDS011;35061;47.664;9.166;2023-03-07T06:43:10;9.27;;;6.25;;
18754;SDS011;35061;47.664;9.166;2023-03-07T06:45:38;7.72;;;5.85;;
18754;SDS011;35061;47.664;9.166;2023-03-07T06:48:06;8.00;;;5.90;;
18754;SDS011;35061;47.664;9.166;2023-03-07T06:50:33;11.68;;;6.35;;
18754;SDS011;35061;47.664;9.166;2023-03-07T06:53:01;7.82;;;5.80;;
18754;SDS011;35061;47.664;9.166;2023-03-07T06:55:29;7.72;;;6.18;;
18754;SDS011;35061;47.664;9.166;2023-03-07T06:57:56;7.55;;;5.30;;
18754;SDS011;35061;47.664;9.166;2023-03-07T07:00:24;8.38;;;5.43;;
18754;SDS011;35061;47.664;9.166;2023-03-07T07:02:52;7.75;;;5.80;;
18754;SDS011;35061;47.664;9.166;2023-03-07T07:05:20;11.12;;;6.65;;
18754;SDS011;35061;47.664;9.166;2023-03-07T07:07:48;7.60;;;5.65;;
18754;SDS011;35061;47.664;9.166;2023-03-07T07:10:15;9.55;;;6.45;;
18754;SDS011;35061;47.664;9.166;2023-03-07T07:12:43;8.43;;;5.93;;
18754;SDS011;35061;47.664;9.166;2023-03-07T07:15:11;10.48;;;5.95;;
18754;SDS011;35061;47.664;9.166;2023-03-07T07:17:38;8.13;;;5.87;;
18754;SDS011;35061;47.664;9.166;2023-03-07T07:20:08;9.95;;;6.00;;
18754;SDS011;35061;47.664;9.166;2023-03-07T07:22:37;8.45;;;5.65;;
18754;SDS011;35061;47.664;9.166;2023-03-07T07:25:05;7.50;;;5.15;;
18754;SDS011;35061;47.664;9.166;2023-03-07T07:27:33;10.27;;;5.93;;
18754;SDS011;35061;47.664;9.166;2023-03-07T07:30:03;8.07;;;5.90;;
18754;SDS011;35061;47.664;9.166;2023-03-07T07:32:31;13.13;;;5.75;;
18754;SDS011;35061;47.664;9.166;2023-03-07T07:34:59;8.63;;;6.05;;
18754;SDS011;35061;47.664;9.166;2023-03-07T07:37:27;7.87;;;5.45;;
18754;SDS011;35061;47.664;9.166;2023-03-07T07:39:54;8.65;;;5.90;;
18754;SDS011;35061;47.664;9.166;2023-03-07T07:42:22;8.45;;;5.78;;
18754;SDS011;35061;47.664;9.166;2023-03-07T07:44:50;7.53;;;5.68;;
18754;SDS011;35061;47.664;9.166;2023-03-07T07:47:17;7.50;;;5.75;;
18754;SDS011;35061;47.664;9.166;2023-03-07T07:49:45;7.75;;;5.50;;
18754;SDS011;35061;47.664;9.166;2023-03-07T07:52:13;8.13;;;6.22;;
18754;SDS011;35061;47.664;9.166;2023-03-07T07:54:40;7.60;;;5.22;;
18754;SDS011;35061;47.664;9.166;2023-03-07T07:57:08;8.40;;;5.53;;
18754;SDS011;35061;47.664;9.166;2023-03-07T07:59:36;9.25;;;6.53;;
18754;SDS011;35061;47.664;9.166;2023-03-07T08:02:04;8.25;;;5.57;;
18754;SDS011;35061;47.664;9.166;2023-03-07T08:04:31;8.40;;;5.35;;
18754;SDS011;35061;47.664;9.166;2023-03-07T08:06:59;8.77;;;5.90;;
18754;SDS011;35061;47.664;9.166;2023-03-07T08:09:27;8.25;;;5.72;;
18754;SDS011;35061;47.664;9.166;2023-03-07T08:11:54;7.28;;;5.47;;
18754;SDS011;35061;47.664;9.166;2023-03-07T08:14:22;9.60;;;5.18;;
18754;SDS011;35061;47.664;9.166;2023-03-07T08:16:50;6.95;;;5.10;;
18754;SDS011;35061;47.664;9.166;2023-03-07T08:19:18;7.65;;;5.10;;
18754;SDS011;35061;47.664;9.166;2023-03-07T08:21:45;5.85;;;4.28;;
18754;SDS011;35061;47.664;9.166;2023-03-07T08:24:13;7.07;;;5.00;;
18754;SDS011;35061;47.664;9.166;2023-03-07T08:26:41;7.37;;;5.00;;
18754;SDS011;35061;47.664;9.166;2023-03-07T08:29:08;9.30;;;5.22;;
18754;SDS011;35061;47.664;9.166;2023-03-07T08:31:36;7.20;;;4.95;;
18754;SDS011;35061;47.664;9.166;2023-03-07T08:34:04;7.15;;;4.40;;
18754;SDS011;35061;47.664;9.166;2023-03-07T08:36:31;8.32;;;5.15;;
18754;SDS011;35061;47.664;9.166;2023-03-07T08:38:59;6.32;;;4.75;;
18754;SDS011;35061;47.664;9.166;2023-03-07T08:41:27;6.85;;;4.53;;
18754;SDS011;35061;47.664;9.166;2023-03-07T08:43:55;7.35;;;5.28;;
18754;SDS011;35061;47.664;9.166;2023-03-07T08:46:23;6.93;;;4.80;;
18754;SDS011;35061;47.664;9.166;2023-03-07T08:48:51;8.93;;;4.85;;
18754;SDS011;35061;47.664;9.166;2023-03-07T08:51:19;9.18;;;5.28;;
18754;SDS011;35061;47.664;9.166;2023-03-07T08:53:47;9.05;;;5.28;;
18754;SDS011;35061;47.664;9.166;2023-03-07T08:56:16;7.57;;;5.28;;
18754;SDS011;35061;47.664;9.166;2023-03-07T08:58:45;6.32;;;4.62;;
18754;SDS011;35061;47.664;9.166;2023-03-07T09:01:12;8.60;;;5.43;;
18754;SDS011;35061;47.664;9.166;2023-03-07T09:03:41;13.13;;;6.00;;
18754;SDS011;35061;47.664;9.166;2023-03-07T09:06:13;9.35;;;6.50;;
18754;SDS011;35061;47.664;9.166;2023-03-07T09:08:46;8.27;;;5.22;;
18754;SDS011;35061;47.664;9.166;2023-03-07T09:11:15;9.60;;;5.78;;
18754;SDS011;35061;47.664;9.166;2023-03-07T09:13:44;9.50;;;5.28;;
18754;SDS011;35061;47.664;9.166;2023-03-07T09:16:18;9.82;;;5.90;;
18754;SDS011;35061;47.664;9.166;2023-03-07T09:18:46;8.27;;;5.72;;
18754;SDS011;35061;47.664;9.166;2023-03-07T09:21:14;9.20;;;6.10;;
18754;SDS011;35061;47.664;9.166;2023-03-07T09:23:42;9.15;;;5.68;;
18754;SDS011;35061;47.664;9.166;2023-03-07T09:26:10;8.48;;;5.93;;
18754;SDS011;35061;47.664;9.166;2023-03-07T09:28:38;10.77;;;6.32;;
18754;SDS011;35061;47.664;9.166;2023-03-07T09:31:06;6.97;;;5.47;;
18754;SDS011;35061;47.664;9.166;2023-03-07T09:33:35;11.32;;;5.50;;
18754;SDS011;35061;47.664;9.166;2023-03-07T09:36:06;8.48;;;5.62;;
18754;SDS011;35061;47.664;9.166;2023-03-07T09:38:36;7.43;;;4.85;;
18754;SDS011;35061;47.664;9.166;2023-03-07T09:41:20;9.38;;;5.97;;
18754;SDS011;35061;47.664;9.166;2023-03-07T09:49:37;8.98;;;5.20;;
18754;SDS011;35061;47.664;9.166;2023-03-07T09:52:12;8.35;;;6.40;;
18754;SDS011;35061;47.664;9.166;2023-03-07T09:54:44;8.80;;;5.90;;
18754;SDS011;35061;47.664;9.166;2023-03-07T09:57:20;7.85;;;5.50;;
18754;SDS011;35061;47.664;9.166;2023-03-07T09:59:54;8.52;;;6.05;;
18754;SDS011;35061;47.664;9.166;2023-03-07T10:08:31;7.72;;;5.40;;
18754;SDS011;35061;47.664;9.166;2023-03-07T10:14:14;8.32;;;5.87;;
18754;SDS011;35061;47.664;9.166;2023-03-07T10:19:48;9.15;;;5.43;;
18754;SDS011;35061;47.664;9.166;2023-03-07T10:27:46;8.38;;;5.50;;
18754;SDS011;35061;47.664;9.166;2023-03-07T10:30:16;7.53;;;5.78;;
18754;SDS011;35061;47.664;9.166;2023-03-07T10:32:52;8.63;;;6.05;;
18754;SDS011;35061;47.664;9.166;2023-03-07T10:35:38;10.98;;;6.22;;
18754;SDS011;35061;47.664;9.166;2023-03-07T10:38:15;9.48;;;6.00;;
18754;SDS011;35061;47.664;9.166;2023-03-07T10:40:54;10.57;;;6.05;;
18754;SDS011;35061;47.664;9.166;2023-03-07T10:43:27;10.15;;;6.53;;
18754;SDS011;35061;47.664;9.166;2023-03-07T10:46:00;8.93;;;5.90;;
18754;SDS011;35061;47.664;9.166;2023-03-07T10:48:51;9.98;;;6.32;;
18754;SDS011;35061;47.664;9.166;2023-03-07T10:54:13;8.80;;;6.12;;
18754;SDS011;35061;47.664;9.166;2023-03-07T10:59:44;9.23;;;6.18;;
18754;SDS011;35061;47.664;9.166;2023-03-07T11:04:57;10.10;;;6.40;;
18754;SDS011;35061;47.664;9.166;2023-03-07T11:07:27;8.25;;;5.50;;
18754;SDS011;35061;47.664;9.166;2023-03-07T11:09:57;10.15;;;6.03;;
18754;SDS011;35061;47.664;9.166;2023-03-07T11:12:27;8.95;;;6.05;;
18754;SDS011;35061;47.664;9.166;2023-03-07T11:15:08;8.35;;;6.12;;
18754;SDS011;35061;47.664;9.166;2023-03-07T11:20:17;9.63;;;6.20;;
18754;SDS011;35061;47.664;9.166;2023-03-07T11:23:12;10.15;;;6.20;;
18754;SDS011;35061;47.664;9.166;2023-03-07T11:25:45;9.50;;;6.60;;
18754;SDS011;35061;47.664;9.166;2023-03-07T11:34:04;10.23;;;6.18;;
18754;SDS011;35061;47.664;9.166;2023-03-07T11:37:08;10.93;;;7.20;;
18754;SDS011;35061;47.664;9.166;2023-03-07T11:42:57;9.60;;;6.85;;
18754;SDS011;35061;47.664;9.166;2023-03-07T11:45:41;8.95;;;6.25;;
18754;SDS011;35061;47.664;9.166;2023-03-07T11:48:25;10.65;;;6.05;;
18754;SDS011;35061;47.664;9.166;2023-03-07T11:56:34;10.45;;;6.32;;
18754;SDS011;35061;47.664;9.166;2023-03-07T12:01:57;10.10;;;6.95;;
18754;SDS011;35061;47.664;9.166;2023-03-07T12:07:45;9.63;;;6.78;;
18754;SDS011;35061;47.664;9.166;2023-03-07T12:16:08;11.50;;;6.90;;
18754;SDS011;35061;47.664;9.166;2023-03-07T12:19:04;10.13;;;6.47;;
18754;SDS011;35061;47.664;9.166;2023-03-07T12:24:39;8.90;;;6.07;;
18754;SDS011;35061;47.664;9.166;2023-03-07T12:27:29;11.88;;;7.50;;
18754;SDS011;35061;47.664;9.166;2023-03-07T12:30:03;12.18;;;6.97;;
18754;SDS011;35061;47.664;9.166;2023-03-07T12:32:41;8.43;;;5.45;;
18754;SDS011;35061;47.664;9.166;2023-03-07T12:38:42;10.68;;;6.82;;
18754;SDS011;35061;47.664;9.166;2023-03-07T12:43:57;8.48;;;6.45;;
18754;SDS011;35061;47.664;9.166;2023-03-07T12:46:35;10.85;;;6.80;;
18754;SDS011;35061;47.664;9.166;2023-03-07T12:49:13;10.35;;;7.40;;
18754;SDS011;35061;47.664;9.166;2023-03-07T12:51:44;10.05;;;6.43;;
18754;SDS011;35061;47.664;9.166;2023-03-07T12:54:28;10.32;;;6.53;;
18754;SDS011;35061;47.664;9.166;2023-03-07T12:57:19;8.63;;;6.00;;
18754;SDS011;35061;47.664;9.166;2023-03-07T12:59:52;8.88;;;6.55;;
18754;SDS011;35061;47.664;9.166;2023-03-07T13:02:27;10.20;;;6.40;;
18754;SDS011;35061;47.664;9.166;2023-03-07T13:04:56;10.00;;;6.50;;
18754;SDS011;35061;47.664;9.166;2023-03-07T13:09:56;10.38;;;6.80;;
18754;SDS011;35061;47.664;9.166;2023-03-07T13:12:33;9.50;;;6.37;;
18754;SDS011;35061;47.664;9.166;2023-03-07T13:15:06;11.82;;;7.57;;
18754;SDS011;35061;47.664;9.166;2023-03-07T13:27:47;10.35;;;7.22;;
18754;SDS011;35061;47.664;9.166;2023-03-07T13:40:59;9.55;;;6.72;;
18754;SDS011;35061;47.664;9.166;2023-03-07T13:45:56;12.88;;;8.35;;
18754;SDS011;35061;47.664;9.166;2023-03-07T13:56:01;10.80;;;8.40;;
18754;SDS011;35061;47.664;9.166;2023-03-07T13:58:38;10.80;;;6.82;;
18754;SDS011;35061;47.664;9.166;2023-03-07T14:01:13;11.93;;;7.55;;
18754;SDS011;35061;47.664;9.166;2023-03-07T14:03:46;9.88;;;7.50;;
18754;SDS011;35061;47.664;9.166;2023-03-07T14:06:21;10.10;;;7.65;;
18754;SDS011;35061;47.664;9.166;2023-03-07T14:08:59;12.10;;;7.40;;
18754;SDS011;35061;47.664;9.166;2023-03-07T14:52:22;9.20;;;6.90;;
18754;SDS011;35061;47.664;9.166;2023-03-07T14:55:00;11.63;;;8.13;;
18754;SDS011;35061;47.664;9.166;2023-03-07T14:57:35;11.27;;;7.60;;
18754;SDS011;35061;47.664;9.166;2023-03-07T15:00:24;9.88;;;7.62;;
18754;SDS011;35061;47.664;9.166;2023-03-07T15:02:56;12.52;;;8.23;;
18754;SDS011;35061;47.664;9.166;2023-03-07T15:05:45;11.05;;;7.25;;
18754;SDS011;35061;47.664;9.166;2023-03-07T15:08:18;11.50;;;7.60;;
18754;SDS011;35061;47.664;9.166;2023-03-07T15:10:55;13.20;;;7.87;;
18754;SDS011;35061;47.664;9.166;2023-03-07T15:13:32;10.95;;;7.15;;
18754;SDS011;35061;47.664;9.166;2023-03-07T15:16:02;10.70;;;7.90;;
18754;SDS011;35061;47.664;9.166;2023-03-07T15:18:39;12.30;;;7.53;;
18754;SDS011;35061;47.664;9.166;2023-03-07T15:21:14;12.93;;;8.43;;
18754;SDS011;35061;47.664;9.166;2023-03-07T15:23:55;12.23;;;8.15;;
18754;SDS011;35061;47.664;9.166;2023-03-07T15:26:24;11.85;;;8.68;;
18754;SDS011;35061;47.664;9.166;2023-03-07T15:28:57;11.23;;;7.87;;
18754;SDS011;35061;47.664;9.166;2023-03-07T15:31:30;13.70;;;7.93;;
18754;SDS011;35061;47.664;9.166;2023-03-07T15:34:20;9.88;;;6.70;;
18754;SDS011;35061;47.664;9.166;2023-03-07T15:36:51;14.77;;;7.50;;
18754;SDS011;35061;47.664;9.166;2023-03-07T15:39:54;9.07;;;7.45;;
18754;SDS011;35061;47.664;9.166;2023-03-07T15:42:27;11.80;;;7.03;;
18754;SDS011;35061;47.664;9.166;2023-03-07T15:44:59;12.13;;;7.75;;
18754;SDS011;35061;47.664;9.166;2023-03-07T15:47:29;13.30;;;8.05;;
18754;SDS011;35061;47.664;9.166;2023-03-07T15:49:59;14.02;;;8.23;;
18754;SDS011;35061;47.664;9.166;2023-03-07T15:52:31;9.70;;;6.95;;
18754;SDS011;35061;47.664;9.166;2023-03-07T15:55:03;10.60;;;7.05;;
18754;SDS011;35061;47.664;9.166;2023-03-07T15:57:38;10.38;;;6.60;;
18754;SDS011;35061;47.664;9.166;2023-03-07T16:00:35;13.48;;;7.95;;
18754;SDS011;35061;47.664;9.166;2023-03-07T16:05:55;11.30;;;7.78;;
18754;SDS011;35061;47.664;9.166;2023-03-07T16:08:24;10.18;;;7.30;;
18754;SDS011;35061;47.664;9.166;2023-03-07T16:13:31;11.98;;;7.93;;
18754;SDS011;35061;47.664;9.166;2023-03-07T16:16:11;11.75;;;6.75;;
18754;SDS011;35061;47.664;9.166;2023-03-07T16:18:41;10.50;;;6.78;;
18754;SDS011;35061;47.664;9.166;2023-03-07T16:21:12;10.20;;;6.95;;
18754;SDS011;35061;47.664;9.166;2023-03-07T16:23:41;9.52;;;7.05;;
18754;SDS011;35061;47.664;9.166;2023-03-07T16:26:14;10.43;;;7.53;;
18754;SDS011;35061;47.664;9.166;2023-03-07T16:28:51;9.75;;;6.47;;
18754;SDS011;35061;47.664;9.166;2023-03-07T16:31:20;12.30;;;6.95;;
18754;SDS011;35061;47.664;9.166;2023-03-07T16:33:48;13.62;;;8.35;;
18754;SDS011;35061;47.664;9.166;2023-03-07T16:36:15;10.38;;;7.15;;
18754;SDS011;35061;47.664;9.166;2023-03-07T16:38:44;9.90;;;6.95;;
18754;SDS011;35061;47.664;9.166;2023-03-07T16:41:14;12.90;;;8.05;;
18754;SDS011;35061;47.664;9.166;2023-03-07T16:43:44;14.80;;;8.38;;
18754;SDS011;35061;47.664;9.166;2023-03-07T16:46:14;11.05;;;6.75;;
18754;SDS011;35061;47.664;9.166;2023-03-07T16:48:44;12.93;;;7.32;;
18754;SDS011;35061;47.664;9.166;2023-03-07T16:51:16;11.40;;;7.45;;
18754;SDS011;35061;47.664;9.166;2023-03-07T16:53:45;12.32;;;8.15;;
18754;SDS011;35061;47.664;9.166;2023-03-07T16:56:31;14.02;;;7.93;;
18754;SDS011;35061;47.664;9.166;2023-03-07T16:59:02;11.75;;;7.47;;
18754;SDS011;35061;47.664;9.166;2023-03-07T17:01:30;11.20;;;7.18;;
18754;SDS011;35061;47.664;9.166;2023-03-07T17:03:58;12.50;;;7.95;;
18754;SDS011;35061;47.664;9.166;2023-03-07T17:06:26;11.48;;;7.90;;
18754;SDS011;35061;47.664;9.166;2023-03-07T17:09:05;13.05;;;7.93;;
18754;SDS011;35061;47.664;9.166;2023-03-07T17:11:35;12.82;;;7.72;;
18754;SDS011;35061;47.664;9.166;2023-03-07T17:14:06;12.55;;;7.40;;
18754;SDS011;35061;47.664;9.166;2023-03-07T17:16:42;11.05;;;7.37;;
18754;SDS011;35061;47.664;9.166;2023-03-07T17:19:18;10.02;;;7.37;;
18754;SDS011;35061;47.664;9.166;2023-03-07T17:21:48;11.65;;;7.60;;
18754;SDS011;35061;47.664;9.166;2023-03-07T17:24:16;12.63;;;7.43;;
18754;SDS011;35061;47.664;9.166;2023-03-07T17:26:43;11.70;;;7.12;;
18754;SDS011;35061;47.664;9.166;2023-03-07T17:29:30;9.90;;;7.25;;
18754;SDS011;35061;47.664;9.166;2023-03-07T17:32:03;13.07;;;7.35;;
18754;SDS011;35061;47.664;9.166;2023-03-07T17:34:32;12.35;;;7.25;;
18754;SDS011;35061;47.664;9.166;2023-03-07T17:37:01;10.63;;;7.75;;
18754;SDS011;35061;47.664;9.166;2023-03-07T17:39:30;13.00;;;8.50;;